createdAt,value
2018-12-17T00:00:15.648Z,17.17
2018-12-17T00:02:44.487Z,14.87
2018-12-17T00:05:14.487Z,13.20
2018-12-17T00:07:43.326Z,13.18
2018-12-17T00:10:12.251Z,9.48
2018-12-17T00:12:40.887Z,11.38
2018-12-17T00:15:09.710Z,16.27
2018-12-17T00:17:38.390Z,10.35
2018-12-17T00:20:10.114Z,21.35
2018-12-17T00:22:38.809Z,26.70
2018-12-17T00:25:07.685Z,20.60
2018-12-17T00:27:36.476Z,18.37
2018-12-17T00:30:07.096Z,14.77
2018-12-17T00:32:35.987Z,11.80
2018-12-17T00:35:05.279Z,10.13
2018-12-17T00:37:34.167Z,13.22
2018-12-17T00:40:03.743Z,16.13
2018-12-17T00:42:33.109Z,19.30
2018-12-17T00:45:01.986Z,21.17
2018-12-17T00:47:30.880Z,25.57
2018-12-17T00:49:59.698Z,21.10
2018-12-17T00:52:28.422Z,19.67
2018-12-17T00:54:57.483Z,22.22
2018-12-17T00:57:26.151Z,20.97
2018-12-17T00:59:54.817Z,19.77
2018-12-17T01:02:23.775Z,15.00
2018-12-17T01:04:52.600Z,16.20
2018-12-17T01:07:23.704Z,14.00
2018-12-17T01:09:52.517Z,15.50
2018-12-17T01:12:22.357Z,14.20
2018-12-17T01:14:51.733Z,12.07
2018-12-17T01:17:20.466Z,9.13
2018-12-17T01:19:49.374Z,6.83
2018-12-17T01:22:18.325Z,4.40
2018-12-17T01:24:47.465Z,4.13
2018-12-17T01:27:16.173Z,4.90
2018-12-17T01:29:44.961Z,4.57
2018-12-17T01:32:13.787Z,4.62
2018-12-17T01:34:42.515Z,4.27
2018-12-17T01:37:11.375Z,4.77
2018-12-17T01:39:40.132Z,4.00
2018-12-17T01:42:09.304Z,2.60
2018-12-17T01:44:37.993Z,3.50
2018-12-17T01:47:06.797Z,3.30
2018-12-17T01:49:35.523Z,5.03
2018-12-17T01:52:04.234Z,3.03
2018-12-17T01:54:32.986Z,4.13
2018-12-17T01:57:01.707Z,3.53
2018-12-17T01:59:30.581Z,4.73
2018-12-17T02:01:59.895Z,2.90
2018-12-17T02:04:28.823Z,4.40
2018-12-17T02:06:57.753Z,4.43
2018-12-17T02:09:27.378Z,4.13
2018-12-17T02:11:56.148Z,4.10
2018-12-17T02:14:25.264Z,3.93
2018-12-17T02:16:54.147Z,4.43
2018-12-17T02:19:23.017Z,3.77
2018-12-17T02:21:51.867Z,3.47
2018-12-17T02:24:21.320Z,4.17
2018-12-17T02:26:50.074Z,4.40
2018-12-17T02:29:18.702Z,4.20
2018-12-17T02:31:47.389Z,3.33
2018-12-17T02:34:16.127Z,4.47
2018-12-17T02:36:44.903Z,2.80
2018-12-17T02:39:13.755Z,3.60
2018-12-17T02:41:42.647Z,3.70
2018-12-17T02:44:11.538Z,4.00
2018-12-17T02:46:40.386Z,3.23
2018-12-17T02:49:09.810Z,3.20
2018-12-17T02:51:38.912Z,2.37
2018-12-17T02:54:07.626Z,3.30
2018-12-17T02:56:36.414Z,1.97
2018-12-17T02:59:05.486Z,2.33
2018-12-17T03:01:34.370Z,2.07
2018-12-17T03:04:03.267Z,3.77
2018-12-17T03:06:32.165Z,2.50
2018-12-17T03:09:00.871Z,2.80
2018-12-17T03:11:30.481Z,3.70
2018-12-17T03:13:59.547Z,2.40
2018-12-17T03:16:28.357Z,2.33
2018-12-17T03:18:57.106Z,4.60
2018-12-17T03:21:25.965Z,3.13
2018-12-17T03:23:54.871Z,3.57
2018-12-17T03:26:23.795Z,2.73
2018-12-17T03:28:52.648Z,2.30
2018-12-17T03:31:21.367Z,2.10
2018-12-17T03:33:50.258Z,1.87
2018-12-17T03:36:19.152Z,1.43
2018-12-17T03:38:47.920Z,1.63
2018-12-17T03:41:16.751Z,4.60
2018-12-17T03:43:45.641Z,2.00
2018-12-17T03:46:14.452Z,2.50
2018-12-17T03:48:43.350Z,2.07
2018-12-17T03:51:12.275Z,2.47
2018-12-17T03:53:41.183Z,2.80
2018-12-17T03:56:10.055Z,2.20
2018-12-17T03:58:38.899Z,2.80
2018-12-17T04:01:07.870Z,2.57
2018-12-17T04:03:36.560Z,3.30
2018-12-17T04:06:05.378Z,2.90
2018-12-17T04:08:34.719Z,3.20
2018-12-17T04:11:03.835Z,3.50
2018-12-17T04:13:33.186Z,2.63
2018-12-17T04:16:02.470Z,3.87
2018-12-17T04:18:32.411Z,3.63
2018-12-17T04:21:01.274Z,2.70
2018-12-17T04:23:30.214Z,3.37
2018-12-17T04:25:59.102Z,7.43
2018-12-17T04:28:27.838Z,3.30
2018-12-17T04:30:56.632Z,3.43
2018-12-17T04:33:25.504Z,4.47
2018-12-17T04:35:54.338Z,3.27
2018-12-17T04:38:23.077Z,2.60
2018-12-17T04:40:51.965Z,3.53
2018-12-17T04:43:20.771Z,3.67
2018-12-17T04:45:49.911Z,4.45
2018-12-17T04:48:18.993Z,2.30
2018-12-17T04:50:47.912Z,4.40
2018-12-17T04:53:16.715Z,2.83
2018-12-17T04:55:45.450Z,3.30
2018-12-17T04:58:14.354Z,3.63
2018-12-17T05:00:43.241Z,3.20
2018-12-17T05:03:12.280Z,2.90
2018-12-17T05:05:41.224Z,3.40
2018-12-17T05:08:10.024Z,4.25
2018-12-17T05:10:39.407Z,2.60
2018-12-17T05:13:08.259Z,3.00
2018-12-17T05:15:37.607Z,2.43
2018-12-17T05:18:06.780Z,3.63
2018-12-17T05:20:35.883Z,2.57
2018-12-17T05:23:04.927Z,2.70
2018-12-17T05:25:33.841Z,2.87
2018-12-17T05:28:02.652Z,3.23
2018-12-17T05:30:31.533Z,2.63
2018-12-17T05:33:01.427Z,5.57
2018-12-17T05:35:30.544Z,9.27
2018-12-17T05:37:59.497Z,18.10
2018-12-17T05:40:28.463Z,7.00
2018-12-17T05:42:57.225Z,8.77
2018-12-17T05:45:26.045Z,7.50
2018-12-17T05:47:55.005Z,6.27
2018-12-17T05:50:23.840Z,6.47
2018-12-17T05:52:52.864Z,6.50
2018-12-17T05:55:21.752Z,6.87
2018-12-17T05:57:50.595Z,7.57
2018-12-17T06:00:19.752Z,6.00
2018-12-17T06:02:48.827Z,5.50
2018-12-17T06:05:17.559Z,3.13
2018-12-17T06:07:46.212Z,5.93
2018-12-17T06:10:15.312Z,3.90
2018-12-17T06:12:44.426Z,5.70
2018-12-17T06:15:13.246Z,4.07
2018-12-17T06:17:42.431Z,5.87
2018-12-17T06:20:11.387Z,4.97
2018-12-17T06:22:40.201Z,3.50
2018-12-17T06:25:08.980Z,4.40
2018-12-17T06:27:38.635Z,3.80
2018-12-17T06:30:07.811Z,2.77
2018-12-17T06:32:36.758Z,4.53
2018-12-17T06:35:06.308Z,3.43
2018-12-17T06:37:35.177Z,6.30
2018-12-17T06:40:10.313Z,5.90
2018-12-17T06:42:35.620Z,5.65
2018-12-17T06:45:05.372Z,7.67
2018-12-17T06:47:34.421Z,5.60
2018-12-17T06:50:03.318Z,6.92
2018-12-17T06:52:32.133Z,6.75
2018-12-17T06:55:01.106Z,6.77
2018-12-17T06:57:30.572Z,6.97
2018-12-17T06:59:59.409Z,11.60
2018-12-17T07:02:28.164Z,6.35
2018-12-17T07:04:57.231Z,6.28
2018-12-17T07:07:26.127Z,6.10
2018-12-17T07:09:55.173Z,6.10
2018-12-17T07:12:24.120Z,6.30
2018-12-17T07:14:52.931Z,6.00
2018-12-17T07:17:25.013Z,4.37
2018-12-17T07:19:54.225Z,3.60
2018-12-17T07:22:23.161Z,4.50
2018-12-17T07:24:51.999Z,3.10
2018-12-17T07:27:20.845Z,5.30
2018-12-17T07:29:49.972Z,6.00
2018-12-17T07:32:19.300Z,4.90
2018-12-17T07:34:48.307Z,3.40
2018-12-17T07:37:17.546Z,5.95
2018-12-17T07:39:46.611Z,3.57
2018-12-17T07:42:15.512Z,4.30
2018-12-17T07:44:44.294Z,9.40
2018-12-17T07:47:13.205Z,5.20
2018-12-17T07:49:42.252Z,3.97
2018-12-17T07:52:11.166Z,4.40
2018-12-17T07:54:40.069Z,3.07
2018-12-17T07:57:08.939Z,4.67
2018-12-17T07:59:37.822Z,4.20
2018-12-17T08:02:06.690Z,2.80
2018-12-17T08:04:35.693Z,5.53
2018-12-17T08:07:04.761Z,4.97
2018-12-17T08:09:33.517Z,5.30
2018-12-17T08:12:02.582Z,5.10
2018-12-17T08:14:31.577Z,4.53
2018-12-17T08:17:00.905Z,4.30
2018-12-17T08:19:29.826Z,4.37
2018-12-17T08:22:05.823Z,5.63
2018-12-17T08:24:34.816Z,6.23
2018-12-17T08:27:03.712Z,3.70
2018-12-17T08:29:32.555Z,10.03
2018-12-17T08:32:01.511Z,6.00
2018-12-17T08:34:30.371Z,6.80
2018-12-17T08:36:59.223Z,6.67
2018-12-17T08:39:28.170Z,6.23
2018-12-17T08:41:57.160Z,7.95
2018-12-17T08:44:25.962Z,9.65
2018-12-17T08:46:54.983Z,11.43
2018-12-17T08:49:23.929Z,12.68
2018-12-17T08:51:52.727Z,12.23
2018-12-17T08:54:21.472Z,9.45
2018-12-17T08:56:50.155Z,9.13
2018-12-17T08:59:18.988Z,10.78
2018-12-17T09:01:47.774Z,11.57
2018-12-17T09:04:16.784Z,9.65
2018-12-17T09:06:45.578Z,9.08
2018-12-17T09:09:14.623Z,12.07
2018-12-17T09:11:43.666Z,10.08
2018-12-17T09:14:12.603Z,8.13
2018-12-17T09:16:41.471Z,11.95
2018-12-17T09:19:10.346Z,9.18
2018-12-17T09:21:39.281Z,8.25
2018-12-17T09:24:08.705Z,10.65
2018-12-17T09:26:37.679Z,8.60
2018-12-17T09:29:06.388Z,11.12
2018-12-17T09:31:35.138Z,8.88
2018-12-17T09:34:04.173Z,8.53
2018-12-17T09:36:33.348Z,9.35
2018-12-17T09:39:02.098Z,7.72
2018-12-17T09:41:30.844Z,8.45
2018-12-17T09:43:59.625Z,6.17
2018-12-17T09:46:28.347Z,6.55
2018-12-17T09:48:57.286Z,6.97
2018-12-17T09:51:26.162Z,6.45
2018-12-17T09:53:55.257Z,7.22
2018-12-17T09:56:24.063Z,9.88
2018-12-17T09:58:53.203Z,5.90
2018-12-17T10:01:21.905Z,7.28
2018-12-17T10:03:50.761Z,6.55
2018-12-17T10:06:19.880Z,8.78
2018-12-17T10:08:49.024Z,10.05
2018-12-17T10:11:25.308Z,10.28
2018-12-17T10:13:54.547Z,9.95
2018-12-17T10:16:23.382Z,13.40
2018-12-17T10:18:52.126Z,12.07
2018-12-17T10:21:21.029Z,12.00
2018-12-17T10:23:50.128Z,14.07
2018-12-17T10:26:19.648Z,12.88
2018-12-17T10:28:48.522Z,11.95
2018-12-17T10:31:17.598Z,10.55
2018-12-17T10:33:46.695Z,6.05
2018-12-17T10:36:15.552Z,7.95
2018-12-17T10:38:44.624Z,7.78
2018-12-17T10:41:13.771Z,10.78
2018-12-17T10:43:42.850Z,11.68
2018-12-17T10:46:11.747Z,6.40
2018-12-17T10:48:40.743Z,7.70
2018-12-17T10:51:09.552Z,6.53
2018-12-17T10:53:38.400Z,7.30
2018-12-17T10:56:07.150Z,5.10
2018-12-17T10:58:36.032Z,11.12
2018-12-17T11:01:10.414Z,8.33
2018-12-17T11:03:41.441Z,7.17
2018-12-17T11:06:15.104Z,4.75
2018-12-17T11:08:44.126Z,4.17
2018-12-17T11:11:12.861Z,5.37
2018-12-17T11:13:42.025Z,3.40
2018-12-17T11:16:10.707Z,5.45
2018-12-17T11:18:39.577Z,4.25
2018-12-17T11:21:08.284Z,3.58
2018-12-17T11:23:37.162Z,4.65
2018-12-17T11:26:06.010Z,7.15
2018-12-17T11:28:34.871Z,2.52
2018-12-17T11:31:03.660Z,5.08
2018-12-17T11:33:32.499Z,8.23
2018-12-17T11:36:01.211Z,6.20
2018-12-17T11:38:30.096Z,7.93
2018-12-17T11:40:58.953Z,8.58
2018-12-17T11:43:27.647Z,6.35
2018-12-17T11:45:56.571Z,5.50
2018-12-17T11:48:25.736Z,6.72
2018-12-17T11:50:54.505Z,7.30
2018-12-17T11:53:23.300Z,5.50
2018-12-17T11:55:52.169Z,4.12
2018-12-17T11:58:21.168Z,6.45
2018-12-17T12:00:53.954Z,8.73
2018-12-17T12:03:21.679Z,13.70
2018-12-17T12:05:50.617Z,7.33
2018-12-17T12:08:19.379Z,5.37
2018-12-17T12:10:48.486Z,9.05
2018-12-17T12:13:17.399Z,4.80
2018-12-17T12:15:46.165Z,4.03
2018-12-17T12:18:15.047Z,3.80
2018-12-17T12:20:44.219Z,8.00
2018-12-17T12:23:12.975Z,5.22
2018-12-17T12:25:41.875Z,6.12
2018-12-17T12:28:10.580Z,7.20
2018-12-17T12:30:40.083Z,4.55
2018-12-17T12:33:08.885Z,5.05
2018-12-17T12:35:38.559Z,4.55
2018-12-17T12:38:07.427Z,4.20
2018-12-17T12:40:36.124Z,3.87
2018-12-17T12:43:04.940Z,5.10
2018-12-17T12:45:33.721Z,6.37
2018-12-17T12:48:02.619Z,13.43
2018-12-17T12:50:31.401Z,8.25
2018-12-17T12:53:00.403Z,19.95
2018-12-17T12:55:29.199Z,12.90
2018-12-17T12:58:03.569Z,9.85
2018-12-17T13:00:29.111Z,6.12
2018-12-17T13:02:57.975Z,3.52
2018-12-17T13:05:26.696Z,4.60
2018-12-17T13:07:55.759Z,6.30
2018-12-17T13:10:24.613Z,4.17
2018-12-17T13:12:53.369Z,4.15
2018-12-17T13:15:22.233Z,4.83
2018-12-17T13:17:51.076Z,4.62
2018-12-17T13:20:19.771Z,3.72
2018-12-17T13:22:48.797Z,5.53
2018-12-17T13:25:19.737Z,4.75
2018-12-17T13:27:48.413Z,4.45
2018-12-17T13:30:17.185Z,7.87
2018-12-17T13:32:46.131Z,4.30
2018-12-17T13:35:15.013Z,3.95
2018-12-17T13:37:43.876Z,5.75
2018-12-17T13:40:12.737Z,9.30
2018-12-17T13:42:41.471Z,4.17
2018-12-17T13:45:10.362Z,2.42
2018-12-17T13:47:39.447Z,6.53
2018-12-17T13:50:13.862Z,2.90
2018-12-17T13:52:46.840Z,2.30
2018-12-17T13:55:15.860Z,4.35
2018-12-17T13:57:44.640Z,5.37
2018-12-17T14:00:13.654Z,4.20
2018-12-17T14:02:42.395Z,5.22
2018-12-17T14:05:11.223Z,4.80
2018-12-17T14:07:39.877Z,4.40
2018-12-17T14:13:13.577Z,6.40
2018-12-17T14:15:48.647Z,3.45
2018-12-17T14:18:23.166Z,4.95
2018-12-17T14:20:57.566Z,7.33
2018-12-17T14:23:26.464Z,4.00
2018-12-17T14:25:55.372Z,5.78
2018-12-17T14:28:24.207Z,3.65
2018-12-17T14:30:52.945Z,5.40
2018-12-17T14:33:22.154Z,8.08
2018-12-17T14:35:56.869Z,5.87
2018-12-17T14:38:25.757Z,6.15
2018-12-17T14:40:54.620Z,3.65
2018-12-17T14:43:23.584Z,6.00
2018-12-17T14:45:52.361Z,6.90
2018-12-17T14:48:21.011Z,6.05
2018-12-17T14:50:49.863Z,8.85
2018-12-17T14:53:18.688Z,12.73
2018-12-17T14:55:47.342Z,15.05
2018-12-17T14:58:16.308Z,11.08
2018-12-17T15:00:45.258Z,8.70
2018-12-17T15:03:14.148Z,5.30
2018-12-17T15:05:42.937Z,6.65
2018-12-17T15:08:11.758Z,4.90
2018-12-17T15:10:40.505Z,3.20
2018-12-17T15:13:09.313Z,4.42
2018-12-17T15:15:38.029Z,4.10
2018-12-17T15:18:06.968Z,5.78
2018-12-17T15:20:35.856Z,4.37
2018-12-17T15:23:04.741Z,6.90
2018-12-17T15:25:33.606Z,6.60
2018-12-17T15:28:02.555Z,4.80
2018-12-17T15:30:31.377Z,9.40
2018-12-17T15:33:01.002Z,5.25
2018-12-17T15:35:30.214Z,5.65
2018-12-17T15:37:59.025Z,7.00
2018-12-17T15:40:27.642Z,5.33
2018-12-17T15:42:56.490Z,6.62
2018-12-17T15:45:25.401Z,8.30
2018-12-17T15:47:54.468Z,5.65
2018-12-17T15:50:23.549Z,6.72
2018-12-17T15:52:52.456Z,4.75
2018-12-17T15:55:21.343Z,9.00
2018-12-17T15:57:50.168Z,7.37
2018-12-17T16:00:19.062Z,11.63
2018-12-17T16:02:47.994Z,8.48
2018-12-17T16:05:17.536Z,7.90
2018-12-17T16:07:46.406Z,6.37
2018-12-17T16:10:15.445Z,12.35
2018-12-17T16:12:44.551Z,5.47
2018-12-17T16:15:13.431Z,8.53
2018-12-17T16:17:42.047Z,10.98
2018-12-17T16:20:10.779Z,9.25
2018-12-17T16:22:39.426Z,10.00
2018-12-17T16:25:08.071Z,12.82
2018-12-17T16:27:36.917Z,11.68
2018-12-17T16:30:08.550Z,15.08
2018-12-17T16:32:37.350Z,10.55
2018-12-17T16:35:06.214Z,15.08
2018-12-17T16:37:35.275Z,15.25
2018-12-17T16:40:05.495Z,14.38
2018-12-17T16:42:34.324Z,11.75
2018-12-17T16:45:03.090Z,12.80
2018-12-17T16:47:31.827Z,15.40
2018-12-17T16:50:00.701Z,10.00
2018-12-17T16:52:29.505Z,10.48
2018-12-17T16:54:58.478Z,11.10
2018-12-17T16:57:27.290Z,8.98
2018-12-17T16:59:56.129Z,9.63
2018-12-17T17:02:25.195Z,7.65
2018-12-17T17:04:53.878Z,5.17
2018-12-17T17:07:22.526Z,5.10
2018-12-17T17:09:51.567Z,4.10
2018-12-17T17:12:20.497Z,3.53
2018-12-17T17:14:49.586Z,6.63
2018-12-17T17:17:18.953Z,4.50
2018-12-17T17:19:50.826Z,3.43
2018-12-17T17:22:18.847Z,1.83
2018-12-17T17:24:47.804Z,3.93
2018-12-17T17:27:16.750Z,3.17
2018-12-17T17:29:45.707Z,2.90
2018-12-17T17:32:14.568Z,3.30
2018-12-17T17:34:43.597Z,2.80
2018-12-17T17:37:12.484Z,1.83
2018-12-17T17:39:41.870Z,2.03
2018-12-17T17:42:10.832Z,2.93
2018-12-17T17:44:39.860Z,6.83
2018-12-17T17:47:08.533Z,3.17
2018-12-17T17:49:37.429Z,2.00
2018-12-17T17:52:06.130Z,2.60
2018-12-17T17:54:34.924Z,3.07
2018-12-17T17:57:03.701Z,4.77
2018-12-17T17:59:32.765Z,2.00
2018-12-17T18:02:01.673Z,2.27
2018-12-17T18:04:30.441Z,2.60
2018-12-17T18:06:59.535Z,1.77
2018-12-17T18:09:28.400Z,3.07
2018-12-17T18:11:57.106Z,3.93
2018-12-17T18:14:25.822Z,1.73
2018-12-17T18:16:54.855Z,1.90
2018-12-17T18:19:23.775Z,2.70
2018-12-17T18:21:52.610Z,2.70
2018-12-17T18:24:21.342Z,3.53
2018-12-17T18:26:50.043Z,7.43
2018-12-17T18:29:18.966Z,1.80
2018-12-17T18:31:47.766Z,2.03
2018-12-17T18:34:16.503Z,3.67
2018-12-17T18:36:45.159Z,3.30
2018-12-17T18:39:14.085Z,3.00
2018-12-17T18:41:43.216Z,2.83
2018-12-17T18:44:11.940Z,2.27
2018-12-17T18:46:40.838Z,3.53
2018-12-17T18:49:09.745Z,3.63
2018-12-17T18:51:38.605Z,3.60
2018-12-17T18:54:07.676Z,2.37
2018-12-17T18:56:36.391Z,3.77
2018-12-17T18:59:05.112Z,4.23
2018-12-17T19:01:33.979Z,3.13
2018-12-17T19:04:02.916Z,3.67
2018-12-17T19:06:31.674Z,5.07
2018-12-17T19:09:00.777Z,4.10
2018-12-17T19:11:29.856Z,1.70
2018-12-17T19:13:58.525Z,6.47
2018-12-17T19:16:27.234Z,4.53
2018-12-17T19:18:56.008Z,4.83
2018-12-17T19:21:24.896Z,3.70
2018-12-17T19:23:53.781Z,4.80
2018-12-17T19:26:22.499Z,3.67
2018-12-17T19:28:51.339Z,4.07
2018-12-17T19:31:20.064Z,4.17
2018-12-17T19:33:49.137Z,3.40
2018-12-17T19:36:18.191Z,2.70
2018-12-17T19:38:46.893Z,4.97
2018-12-17T19:41:15.606Z,2.37
2018-12-17T19:43:44.949Z,3.30
2018-12-17T19:46:13.732Z,2.93
2018-12-17T19:48:42.508Z,2.70
2018-12-17T19:51:11.341Z,1.60
2018-12-17T19:53:40.182Z,3.00
2018-12-17T19:56:09.087Z,4.07
2018-12-17T19:58:37.755Z,2.27
2018-12-17T20:01:06.798Z,2.53
2018-12-17T20:03:35.625Z,3.27
2018-12-17T20:06:04.486Z,2.03
2018-12-17T20:08:33.662Z,2.17
2018-12-17T20:11:02.515Z,4.90
2018-12-17T20:13:31.267Z,3.53
2018-12-17T20:15:59.984Z,4.07
2018-12-17T20:18:29.399Z,6.27
2018-12-17T20:20:58.133Z,3.30
2018-12-17T20:23:27.006Z,6.50
2018-12-17T20:25:56.007Z,3.87
2018-12-17T20:28:24.709Z,4.37
2018-12-17T20:30:53.435Z,5.07
2018-12-17T20:33:22.291Z,4.63
2018-12-17T20:35:51.164Z,4.73
2018-12-17T20:38:19.985Z,4.47
2018-12-17T20:40:48.854Z,5.07
2018-12-17T20:43:17.563Z,4.70
2018-12-17T20:45:46.577Z,4.57
2018-12-17T20:48:15.289Z,4.83
2018-12-17T20:50:43.961Z,4.57
2018-12-17T20:53:12.738Z,5.80
2018-12-17T20:55:41.566Z,5.30
2018-12-17T20:58:10.338Z,6.50
2018-12-17T21:00:39.229Z,6.53
2018-12-17T21:03:08.062Z,8.10
2018-12-17T21:05:37.035Z,5.20
2018-12-17T21:08:05.920Z,4.27
2018-12-17T21:10:36.045Z,5.13
2018-12-17T21:13:05.430Z,5.30
2018-12-17T21:15:34.360Z,3.90
2018-12-17T21:18:03.143Z,3.90
2018-12-17T21:20:31.933Z,6.20
2018-12-17T21:23:00.718Z,6.60
2018-12-17T21:25:29.616Z,4.27
2018-12-17T21:27:58.460Z,5.30
2018-12-17T21:30:27.412Z,3.80
2018-12-17T21:32:56.295Z,4.60
2018-12-17T21:35:25.134Z,3.83
2018-12-17T21:37:54.055Z,3.93
2018-12-17T21:40:23.192Z,2.83
2018-12-17T21:42:52.252Z,2.07
2018-12-17T21:45:20.988Z,5.17
2018-12-17T21:47:49.925Z,4.07
2018-12-17T21:50:18.813Z,4.10
2018-12-17T21:52:47.684Z,4.30
2018-12-17T21:55:16.441Z,4.53
2018-12-17T21:57:45.354Z,3.00
2018-12-17T22:00:14.419Z,4.90
2018-12-17T22:02:43.166Z,3.33
2018-12-17T22:05:12.484Z,3.00
2018-12-17T22:07:41.556Z,3.03
2018-12-17T22:10:12.635Z,3.10
2018-12-17T22:12:41.378Z,2.87
2018-12-17T22:15:10.276Z,3.73
2018-12-17T22:17:39.167Z,2.90
2018-12-17T22:20:08.077Z,4.03
2018-12-17T22:22:36.893Z,3.90
2018-12-17T22:25:05.956Z,4.07
2018-12-17T22:27:34.848Z,3.30
2018-12-17T22:30:04.101Z,2.63
2018-12-17T22:32:33.254Z,2.13
2018-12-17T22:35:02.068Z,3.60
2018-12-17T22:37:30.799Z,2.77
2018-12-17T22:39:59.842Z,2.83
2018-12-17T22:42:28.765Z,3.93
2018-12-17T22:44:57.659Z,4.27
2018-12-17T22:47:26.517Z,4.63
2018-12-17T22:49:55.543Z,5.70
2018-12-17T22:52:24.580Z,3.47
2018-12-17T22:54:53.494Z,2.90
2018-12-17T22:57:22.146Z,3.40
2018-12-17T22:59:50.955Z,4.97
2018-12-17T23:02:19.620Z,3.70
2018-12-17T23:04:48.234Z,3.30
2018-12-17T23:07:17.029Z,5.80
2018-12-17T23:09:57.216Z,4.17
2018-12-17T23:12:37.293Z,3.43
2018-12-17T23:15:17.740Z,3.57
2018-12-17T23:17:45.739Z,6.80
2018-12-17T23:20:15.204Z,3.20
2018-12-17T23:22:44.813Z,4.10
2018-12-17T23:25:13.873Z,6.03
2018-12-17T23:27:48.497Z,4.10
2018-12-17T23:30:17.613Z,6.80
2018-12-17T23:32:46.621Z,7.63
2018-12-17T23:35:15.729Z,6.40
2018-12-17T23:37:44.587Z,3.30
2018-12-17T23:40:13.439Z,4.30
2018-12-17T23:42:42.142Z,5.57
2018-12-17T23:45:10.947Z,2.97
2018-12-17T23:47:39.903Z,2.80
2018-12-17T23:50:08.786Z,3.27
2018-12-17T23:52:37.866Z,6.63
2018-12-17T23:55:06.802Z,3.70
2018-12-17T23:57:35.869Z,3.90
